sensor_id;sensor_type;location;lat;lon;timestamp;temperature;humidity
5846;DHT22;2949;50.778;7.094;2024-03-23T00:53:06;7.70;99.90
5846;DHT22;2949;50.778;7.094;2024-03-23T00:55:31;7.80;99.90
5846;DHT22;2949;50.778;7.094;2024-03-23T00:57:57;7.80;99.90
5846;DHT22;2949;50.778;7.094;2024-03-23T01:00:22;7.70;99.90
5846;DHT22;2949;50.778;7.094;2024-03-23T01:02:48;7.70;99.90
5846;DHT22;2949;50.778;7.094;2024-03-23T01:05:13;7.70;99.90
5846;DHT22;2949;50.778;7.094;2024-03-23T01:07:39;7.70;99.90
5846;DHT22;2949;50.778;7.094;2024-03-23T01:10:05;7.60;99.90
5846;DHT22;2949;50.778;7.094;2024-03-23T01:12:30;7.70;99.90
5846;DHT22;2949;50.778;7.094;2024-03-23T01:14:56;7.70;99.90
5846;DHT22;2949;50.778;7.094;2024-03-23T01:17:21;7.60;99.90
5846;DHT22;2949;50.778;7.094;2024-03-23T01:19:47;7.60;99.90
5846;DHT22;2949;50.778;7.094;2024-03-23T01:22:12;7.60;99.90
5846;DHT22;2949;50.778;7.094;2024-03-23T01:24:38;7.60;99.90
5846;DHT22;2949;50.778;7.094;2024-03-23T01:27:04;7.60;99.90
5846;DHT22;2949;50.778;7.094;2024-03-23T01:29:29;7.50;99.90
5846;DHT22;2949;50.778;7.094;2024-03-23T01:31:55;7.50;99.90
5846;DHT22;2949;50.778;7.094;2024-03-23T01:34:20;7.40;99.90
5846;DHT22;2949;50.778;7.094;2024-03-23T01:36:46;7.40;99.90
5846;DHT22;2949;50.778;7.094;2024-03-23T01:39:12;7.40;99.90
5846;DHT22;2949;50.778;7.094;2024-03-23T01:41:39;7.40;99.90
5846;DHT22;2949;50.778;7.094;2024-03-23T01:44:07;7.40;99.90
5846;DHT22;2949;50.778;7.094;2024-03-23T01:46:33;7.40;99.90
5846;DHT22;2949;50.778;7.094;2024-03-23T01:48:59;7.40;99.90
5846;DHT22;2949;50.778;7.094;2024-03-23T01:51:26;7.40;99.90
5846;DHT22;2949;50.778;7.094;2024-03-23T01:53:53;7.30;99.90
5846;DHT22;2949;50.778;7.094;2024-03-23T01:56:20;7.30;99.90
5846;DHT22;2949;50.778;7.094;2024-03-23T01:58:45;7.30;99.90
5846;DHT22;2949;50.778;7.094;2024-03-23T02:01:11;7.30;99.90
5846;DHT22;2949;50.778;7.094;2024-03-23T02:03:37;7.30;99.90
5846;DHT22;2949;50.778;7.094;2024-03-23T02:06:02;7.30;99.90
5846;DHT22;2949;50.778;7.094;2024-03-23T02:08:30;7.30;99.90
5846;DHT22;2949;50.778;7.094;2024-03-23T02:10:56;7.20;99.90
5846;DHT22;2949;50.778;7.094;2024-03-23T02:13:21;7.20;99.90
5846;DHT22;2949;50.778;7.094;2024-03-23T02:15:47;7.20;99.90
5846;DHT22;2949;50.778;7.094;2024-03-23T02:18:13;7.10;99.90
5846;DHT22;2949;50.778;7.094;2024-03-23T02:20:39;7.00;99.90
5846;DHT22;2949;50.778;7.094;2024-03-23T02:23:05;7.00;99.90
5846;DHT22;2949;50.778;7.094;2024-03-23T02:25:33;6.90;99.90
5846;DHT22;2949;50.778;7.094;2024-03-23T02:27:59;6.80;99.90
5846;DHT22;2949;50.778;7.094;2024-03-23T02:30:26;6.80;99.90
5846;DHT22;2949;50.778;7.094;2024-03-23T02:32:51;6.80;99.90
5846;DHT22;2949;50.778;7.094;2024-03-23T02:35:17;6.70;99.90
5846;DHT22;2949;50.778;7.094;2024-03-23T02:37:42;6.70;99.90
5846;DHT22;2949;50.778;7.094;2024-03-23T02:40:08;6.70;99.90
5846;DHT22;2949;50.778;7.094;2024-03-23T02:42:34;6.70;99.90
5846;DHT22;2949;50.778;7.094;2024-03-23T02:44:59;6.60;99.90
5846;DHT22;2949;50.778;7.094;2024-03-23T02:47:25;6.60;99.90
5846;DHT22;2949;50.778;7.094;2024-03-23T02:49:50;6.50;99.90
5846;DHT22;2949;50.778;7.094;2024-03-23T02:52:16;6.50;99.90
5846;DHT22;2949;50.778;7.094;2024-03-23T02:54:41;6.50;99.90
5846;DHT22;2949;50.778;7.094;2024-03-23T02:57:10;6.40;99.90
5846;DHT22;2949;50.778;7.094;2024-03-23T02:59:35;6.40;99.90
5846;DHT22;2949;50.778;7.094;2024-03-23T03:02:01;6.40;99.90
5846;DHT22;2949;50.778;7.094;2024-03-23T03:04:26;6.30;99.90
5846;DHT22;2949;50.778;7.094;2024-03-23T03:06:52;6.30;99.90
5846;DHT22;2949;50.778;7.094;2024-03-23T03:09:18;6.30;99.90
5846;DHT22;2949;50.778;7.094;2024-03-23T03:11:43;6.20;99.90
5846;DHT22;2949;50.778;7.094;2024-03-23T03:14:09;6.20;99.90
5846;DHT22;2949;50.778;7.094;2024-03-23T03:16:34;6.10;99.90
5846;DHT22;2949;50.778;7.094;2024-03-23T03:19:00;5.90;99.90
5846;DHT22;2949;50.778;7.094;2024-03-23T03:21:26;5.80;99.90
5846;DHT22;2949;50.778;7.094;2024-03-23T03:23:52;5.60;99.90
5846;DHT22;2949;50.778;7.094;2024-03-23T03:26:18;5.60;99.90
5846;DHT22;2949;50.778;7.094;2024-03-23T03:28:43;5.50;99.90
5846;DHT22;2949;50.778;7.094;2024-03-23T03:31:17;5.50;99.90
5846;DHT22;2949;50.778;7.094;2024-03-23T03:33:43;5.40;99.90
5846;DHT22;2949;50.778;7.094;2024-03-23T03:36:09;5.40;99.90
5846;DHT22;2949;50.778;7.094;2024-03-23T03:38:35;5.40;99.90
5846;DHT22;2949;50.778;7.094;2024-03-23T03:41:01;5.40;99.90
5846;DHT22;2949;50.778;7.094;2024-03-23T03:43:27;5.40;99.90
5846;DHT22;2949;50.778;7.094;2024-03-23T03:45:56;5.40;99.90
5846;DHT22;2949;50.778;7.094;2024-03-23T03:48:22;5.40;99.90
5846;DHT22;2949;50.778;7.094;2024-03-23T03:50:48;5.30;99.90
5846;DHT22;2949;50.778;7.094;2024-03-23T03:53:14;5.30;99.90
5846;DHT22;2949;50.778;7.094;2024-03-23T03:55:40;5.30;99.90
5846;DHT22;2949;50.778;7.094;2024-03-23T03:58:05;5.30;99.90
5846;DHT22;2949;50.778;7.094;2024-03-23T04:00:31;5.30;99.90
5846;DHT22;2949;50.778;7.094;2024-03-23T04:02:57;5.20;99.90
5846;DHT22;2949;50.778;7.094;2024-03-23T04:05:23;5.20;99.90
5846;DHT22;2949;50.778;7.094;2024-03-23T04:07:48;5.20;99.90
5846;DHT22;2949;50.778;7.094;2024-03-23T04:10:14;5.10;99.90
5846;DHT22;2949;50.778;7.094;2024-03-23T04:12:40;5.10;99.90
5846;DHT22;2949;50.778;7.094;2024-03-23T04:15:06;5.10;99.90
5846;DHT22;2949;50.778;7.094;2024-03-23T04:17:32;5.10;99.90
5846;DHT22;2949;50.778;7.094;2024-03-23T04:20:00;5.10;99.90
5846;DHT22;2949;50.778;7.094;2024-03-23T04:22:26;5.10;99.90
5846;DHT22;2949;50.778;7.094;2024-03-23T04:24:55;5.10;99.90
5846;DHT22;2949;50.778;7.094;2024-03-23T04:27:22;5.10;99.90
5846;DHT22;2949;50.778;7.094;2024-03-23T04:29:51;5.10;99.90
5846;DHT22;2949;50.778;7.094;2024-03-23T04:32:17;5.10;99.90
5846;DHT22;2949;50.778;7.094;2024-03-23T04:34:43;5.10;99.90
5846;DHT22;2949;50.778;7.094;2024-03-23T04:37:09;5.10;99.90
5846;DHT22;2949;50.778;7.094;2024-03-23T04:39:36;5.00;99.90
5846;DHT22;2949;50.778;7.094;2024-03-23T04:42:02;5.00;99.90
5846;DHT22;2949;50.778;7.094;2024-03-23T04:44:28;5.00;99.90
5846;DHT22;2949;50.778;7.094;2024-03-23T04:46:54;5.10;99.90
5846;DHT22;2949;50.778;7.094;2024-03-23T04:49:19;5.10;99.90
5846;DHT22;2949;50.778;7.094;2024-03-23T04:51:44;5.10;99.90
5846;DHT22;2949;50.778;7.094;2024-03-23T04:54:14;5.10;99.90
5846;DHT22;2949;50.778;7.094;2024-03-23T04:56:40;5.10;99.90
5846;DHT22;2949;50.778;7.094;2024-03-23T04:59:06;5.10;99.90
5846;DHT22;2949;50.778;7.094;2024-03-23T05:01:31;5.10;99.90
5846;DHT22;2949;50.778;7.094;2024-03-23T05:03:57;5.10;99.90
5846;DHT22;2949;50.778;7.094;2024-03-23T05:06:23;5.20;99.90
5846;DHT22;2949;50.778;7.094;2024-03-23T05:08:49;5.10;99.90
5846;DHT22;2949;50.778;7.094;2024-03-23T05:11:15;5.10;99.90
5846;DHT22;2949;50.778;7.094;2024-03-23T05:13:41;5.20;99.90
5846;DHT22;2949;50.778;7.094;2024-03-23T05:16:07;5.20;99.90
5846;DHT22;2949;50.778;7.094;2024-03-23T05:18:33;5.20;99.90
5846;DHT22;2949;50.778;7.094;2024-03-23T05:20:59;5.10;99.90
5846;DHT22;2949;50.778;7.094;2024-03-23T05:23:25;5.10;99.90
5846;DHT22;2949;50.778;7.094;2024-03-23T05:25:51;5.10;99.90
5846;DHT22;2949;50.778;7.094;2024-03-23T05:28:17;5.10;99.90
5846;DHT22;2949;50.778;7.094;2024-03-23T05:30:43;5.10;99.90
5846;DHT22;2949;50.778;7.094;2024-03-23T05:33:09;5.10;99.90
5846;DHT22;2949;50.778;7.094;2024-03-23T05:35:34;5.10;99.90
5846;DHT22;2949;50.778;7.094;2024-03-23T05:38:00;5.10;99.90
5846;DHT22;2949;50.778;7.094;2024-03-23T05:40:26;5.10;99.90
5846;DHT22;2949;50.778;7.094;2024-03-23T05:42:52;5.10;99.90
5846;DHT22;2949;50.778;7.094;2024-03-23T05:45:21;5.10;99.90
5846;DHT22;2949;50.778;7.094;2024-03-23T05:47:48;5.10;99.90
5846;DHT22;2949;50.778;7.094;2024-03-23T05:50:13;5.10;99.90
5846;DHT22;2949;50.778;7.094;2024-03-23T05:52:39;5.20;99.90
5846;DHT22;2949;50.778;7.094;2024-03-23T05:55:05;5.10;99.90
5846;DHT22;2949;50.778;7.094;2024-03-23T05:57:31;5.10;99.90
5846;DHT22;2949;50.778;7.094;2024-03-23T05:59:57;5.10;99.90
5846;DHT22;2949;50.778;7.094;2024-03-23T06:02:23;5.20;99.90
5846;DHT22;2949;50.778;7.094;2024-03-23T06:04:49;5.20;99.90
5846;DHT22;2949;50.778;7.094;2024-03-23T06:07:14;5.20;99.90
5846;DHT22;2949;50.778;7.094;2024-03-23T06:09:41;5.20;99.90
5846;DHT22;2949;50.778;7.094;2024-03-23T06:12:07;5.30;99.90
5846;DHT22;2949;50.778;7.094;2024-03-23T06:14:32;5.30;99.90
5846;DHT22;2949;50.778;7.094;2024-03-23T06:16:58;5.30;99.90
5846;DHT22;2949;50.778;7.094;2024-03-23T06:19:25;5.40;99.90
5846;DHT22;2949;50.778;7.094;2024-03-23T06:21:55;5.40;99.90
5846;DHT22;2949;50.778;7.094;2024-03-23T06:24:24;5.40;99.90
5846;DHT22;2949;50.778;7.094;2024-03-23T06:26:49;5.50;99.90
5846;DHT22;2949;50.778;7.094;2024-03-23T06:29:15;5.50;99.90
5846;DHT22;2949;50.778;7.094;2024-03-23T06:31:41;5.50;99.90
5846;DHT22;2949;50.778;7.094;2024-03-23T06:34:06;5.50;99.90
5846;DHT22;2949;50.778;7.094;2024-03-23T06:36:32;5.50;99.90
5846;DHT22;2949;50.778;7.094;2024-03-23T06:38:58;5.60;99.90
5846;DHT22;2949;50.778;7.094;2024-03-23T06:41:24;5.70;99.90
5846;DHT22;2949;50.778;7.094;2024-03-23T06:43:49;5.80;99.90
5846;DHT22;2949;50.778;7.094;2024-03-23T06:46:15;6.00;99.90
5846;DHT22;2949;50.778;7.094;2024-03-23T06:48:40;6.20;99.90
5846;DHT22;2949;50.778;7.094;2024-03-23T06:51:06;6.40;99.90
5846;DHT22;2949;50.778;7.094;2024-03-23T06:53:32;6.50;99.90
5846;DHT22;2949;50.778;7.094;2024-03-23T06:56:00;6.70;99.90
5846;DHT22;2949;50.778;7.094;2024-03-23T06:58:26;6.90;99.90
5846;DHT22;2949;50.778;7.094;2024-03-23T07:00:51;7.00;99.90
5846;DHT22;2949;50.778;7.094;2024-03-23T07:03:17;7.10;99.90
5846;DHT22;2949;50.778;7.094;2024-03-23T07:05:43;7.10;99.90
5846;DHT22;2949;50.778;7.094;2024-03-23T07:08:08;7.20;99.90
5846;DHT22;2949;50.778;7.094;2024-03-23T07:10:34;7.30;99.90
5846;DHT22;2949;50.778;7.094;2024-03-23T07:13:01;7.30;99.90
5846;DHT22;2949;50.778;7.094;2024-03-23T07:15:26;7.70;99.90
5846;DHT22;2949;50.778;7.094;2024-03-23T07:17:52;9.70;99.90
5846;DHT22;2949;50.778;7.094;2024-03-23T07:20:17;12.10;99.90
5846;DHT22;2949;50.778;7.094;2024-03-23T07:22:45;13.80;99.90
5846;DHT22;2949;50.778;7.094;2024-03-23T07:25:10;15.20;99.90
5846;DHT22;2949;50.778;7.094;2024-03-23T07:27:36;16.00;99.90
5846;DHT22;2949;50.778;7.094;2024-03-23T07:30:01;17.00;99.90
5846;DHT22;2949;50.778;7.094;2024-03-23T07:32:27;17.50;99.90
5846;DHT22;2949;50.778;7.094;2024-03-23T07:34:52;17.50;99.90
5846;DHT22;2949;50.778;7.094;2024-03-23T07:37:18;17.60;99.90
5846;DHT22;2949;50.778;7.094;2024-03-23T07:39:44;17.50;99.90
5846;DHT22;2949;50.778;7.094;2024-03-23T07:42:09;18.70;96.70
5846;DHT22;2949;50.778;7.094;2024-03-23T07:44:35;19.30;95.30
5846;DHT22;2949;50.778;7.094;2024-03-23T07:47:01;19.50;93.20
5846;DHT22;2949;50.778;7.094;2024-03-23T07:49:26;20.00;93.30
5846;DHT22;2949;50.778;7.094;2024-03-23T07:51:52;20.50;91.70
5846;DHT22;2949;50.778;7.094;2024-03-23T07:54:17;20.50;89.50
5846;DHT22;2949;50.778;7.094;2024-03-23T07:56:43;20.50;89.30
5846;DHT22;2949;50.778;7.094;2024-03-23T07:59:09;20.70;84.60
5846;DHT22;2949;50.778;7.094;2024-03-23T08:01:34;20.70;86.60
5846;DHT22;2949;50.778;7.094;2024-03-23T08:04:00;21.20;84.50
5846;DHT22;2949;50.778;7.094;2024-03-23T08:06:25;21.20;83.90
5846;DHT22;2949;50.778;7.094;2024-03-23T08:08:54;21.30;83.60
5846;DHT22;2949;50.778;7.094;2024-03-23T08:11:31;19.00;88.60
5846;DHT22;2949;50.778;7.094;2024-03-23T08:13:57;17.40;91.90
5846;DHT22;2949;50.778;7.094;2024-03-23T08:16:23;14.80;99.90
5846;DHT22;2949;50.778;7.094;2024-03-23T08:18:53;12.30;99.90
5846;DHT22;2949;50.778;7.094;2024-03-23T08:21:19;10.70;99.90
5846;DHT22;2949;50.778;7.094;2024-03-23T08:23:44;9.90;99.90
5846;DHT22;2949;50.778;7.094;2024-03-23T08:26:12;9.40;99.90
5846;DHT22;2949;50.778;7.094;2024-03-23T08:28:38;9.10;99.90
5846;DHT22;2949;50.778;7.094;2024-03-23T08:31:13;8.80;99.90
5846;DHT22;2949;50.778;7.094;2024-03-23T08:33:40;8.90;99.90
5846;DHT22;2949;50.778;7.094;2024-03-23T08:36:07;9.00;99.90
5846;DHT22;2949;50.778;7.094;2024-03-23T08:38:33;9.40;99.90
5846;DHT22;2949;50.778;7.094;2024-03-23T08:41:04;9.70;99.90
5846;DHT22;2949;50.778;7.094;2024-03-23T08:43:31;10.70;99.90
5846;DHT22;2949;50.778;7.094;2024-03-23T08:46:04;12.60;99.90
5846;DHT22;2949;50.778;7.094;2024-03-23T08:48:30;15.50;99.90
5846;DHT22;2949;50.778;7.094;2024-03-23T08:51:06;17.30;98.70
5846;DHT22;2949;50.778;7.094;2024-03-23T08:53:32;18.70;93.20
5846;DHT22;2949;50.778;7.094;2024-03-23T08:55:59;19.50;92.00
5846;DHT22;2949;50.778;7.094;2024-03-23T08:58:25;20.10;90.60
5846;DHT22;2949;50.778;7.094;2024-03-23T09:00:52;20.60;86.80
5846;DHT22;2949;50.778;7.094;2024-03-23T09:03:17;20.10;84.20
5846;DHT22;2949;50.778;7.094;2024-03-23T09:05:43;19.60;87.30
5846;DHT22;2949;50.778;7.094;2024-03-23T09:08:08;19.10;90.30
5846;DHT22;2949;50.778;7.094;2024-03-23T09:10:41;20.30;89.70
5846;DHT22;2949;50.778;7.094;2024-03-23T09:13:07;20.10;88.20
5846;DHT22;2949;50.778;7.094;2024-03-23T09:15:37;19.50;89.10
5846;DHT22;2949;50.778;7.094;2024-03-23T09:18:03;17.40;91.60
5846;DHT22;2949;50.778;7.094;2024-03-23T09:20:32;15.40;94.10
5846;DHT22;2949;50.778;7.094;2024-03-23T09:22:58;13.70;99.30
5846;DHT22;2949;50.778;7.094;2024-03-23T09:25:23;12.50;99.90
5846;DHT22;2949;50.778;7.094;2024-03-23T09:27:50;11.60;99.90
5846;DHT22;2949;50.778;7.094;2024-03-23T09:30:16;11.00;99.90
5846;DHT22;2949;50.778;7.094;2024-03-23T09:32:43;11.60;99.90
5846;DHT22;2949;50.778;7.094;2024-03-23T09:35:09;13.40;99.90
5846;DHT22;2949;50.778;7.094;2024-03-23T09:37:34;14.90;99.90
5846;DHT22;2949;50.778;7.094;2024-03-23T09:40:00;14.40;99.90
5846;DHT22;2949;50.778;7.094;2024-03-23T09:42:26;13.60;99.90
5846;DHT22;2949;50.778;7.094;2024-03-23T09:44:52;12.90;99.90
5846;DHT22;2949;50.778;7.094;2024-03-23T09:47:18;13.10;99.90
5846;DHT22;2949;50.778;7.094;2024-03-23T09:49:43;14.70;99.90
5846;DHT22;2949;50.778;7.094;2024-03-23T09:52:09;16.00;99.90
5846;DHT22;2949;50.778;7.094;2024-03-23T09:54:35;16.70;97.20
5846;DHT22;2949;50.778;7.094;2024-03-23T09:57:01;17.90;96.90
5846;DHT22;2949;50.778;7.094;2024-03-23T09:59:26;17.50;93.50
5846;DHT22;2949;50.778;7.094;2024-03-23T10:01:55;16.70;93.20
5846;DHT22;2949;50.778;7.094;2024-03-23T10:04:40;15.70;94.40
5846;DHT22;2949;50.778;7.094;2024-03-23T10:07:19;15.60;94.00
5846;DHT22;2949;50.778;7.094;2024-03-23T10:09:45;15.00;94.70
5846;DHT22;2949;50.778;7.094;2024-03-23T10:12:17;15.90;95.70
5846;DHT22;2949;50.778;7.094;2024-03-23T10:14:43;16.90;94.20
5846;DHT22;2949;50.778;7.094;2024-03-23T10:17:16;16.30;93.90
5846;DHT22;2949;50.778;7.094;2024-03-23T10:19:51;15.30;94.90
5846;DHT22;2949;50.778;7.094;2024-03-23T10:22:21;14.20;96.30
5846;DHT22;2949;50.778;7.094;2024-03-23T10:24:48;12.90;98.30
5846;DHT22;2949;50.778;7.094;2024-03-23T10:27:18;12.10;99.90
5846;DHT22;2949;50.778;7.094;2024-03-23T10:29:48;11.40;99.90
5846;DHT22;2949;50.778;7.094;2024-03-23T10:32:15;10.90;99.90
5846;DHT22;2949;50.778;7.094;2024-03-23T10:34:41;10.40;99.90
5846;DHT22;2949;50.778;7.094;2024-03-23T10:37:07;9.90;99.90
5846;DHT22;2949;50.778;7.094;2024-03-23T10:39:36;9.50;99.90
5846;DHT22;2949;50.778;7.094;2024-03-23T10:42:03;9.40;99.90
5846;DHT22;2949;50.778;7.094;2024-03-23T10:44:30;9.20;99.90
5846;DHT22;2949;50.778;7.094;2024-03-23T10:46:57;8.80;99.90
5846;DHT22;2949;50.778;7.094;2024-03-23T10:49:43;8.60;99.90
5846;DHT22;2949;50.778;7.094;2024-03-23T10:52:09;8.60;99.90
5846;DHT22;2949;50.778;7.094;2024-03-23T10:54:34;8.60;99.90
5846;DHT22;2949;50.778;7.094;2024-03-23T10:57:14;8.60;99.90
5846;DHT22;2949;50.778;7.094;2024-03-23T10:59:42;8.60;99.90
5846;DHT22;2949;50.778;7.094;2024-03-23T11:02:18;8.60;99.90
5846;DHT22;2949;50.778;7.094;2024-03-23T11:04:44;8.80;99.90
5846;DHT22;2949;50.778;7.094;2024-03-23T11:07:39;8.80;99.90
5846;DHT22;2949;50.778;7.094;2024-03-23T11:10:25;9.10;99.90
5846;DHT22;2949;50.778;7.094;2024-03-23T11:12:52;9.60;99.90
5846;DHT22;2949;50.778;7.094;2024-03-23T11:15:18;9.90;99.90
5846;DHT22;2949;50.778;7.094;2024-03-23T11:18:05;10.40;99.90
5846;DHT22;2949;50.778;7.094;2024-03-23T11:20:35;10.70;99.90
5846;DHT22;2949;50.778;7.094;2024-03-23T11:23:01;10.70;99.90
5846;DHT22;2949;50.778;7.094;2024-03-23T11:25:28;10.70;99.90
5846;DHT22;2949;50.778;7.094;2024-03-23T11:27:55;10.60;99.90
5846;DHT22;2949;50.778;7.094;2024-03-23T11:30:22;10.70;99.90
5846;DHT22;2949;50.778;7.094;2024-03-23T11:32:49;10.70;99.90
5846;DHT22;2949;50.778;7.094;2024-03-23T11:40:48;11.60;99.90
5846;DHT22;2949;50.778;7.094;2024-03-23T11:43:16;11.30;99.90
5846;DHT22;2949;50.778;7.094;2024-03-23T11:45:47;10.90;99.90
5846;DHT22;2949;50.778;7.094;2024-03-23T11:48:18;10.50;99.90
5846;DHT22;2949;50.778;7.094;2024-03-23T11:50:45;10.50;99.90
5846;DHT22;2949;50.778;7.094;2024-03-23T11:55:42;11.10;99.90
5846;DHT22;2949;50.778;7.094;2024-03-23T11:58:07;11.30;99.90
5846;DHT22;2949;50.778;7.094;2024-03-23T12:00:34;11.10;99.90
5846;DHT22;2949;50.778;7.094;2024-03-23T12:03:03;11.00;99.90
5846;DHT22;2949;50.778;7.094;2024-03-23T12:05:29;10.90;99.90
5846;DHT22;2949;50.778;7.094;2024-03-23T12:08:00;10.70;99.90
5846;DHT22;2949;50.778;7.094;2024-03-23T12:10:40;10.50;99.90
5846;DHT22;2949;50.778;7.094;2024-03-23T12:13:05;10.40;99.90
5846;DHT22;2949;50.778;7.094;2024-03-23T12:15:31;10.30;99.90
5846;DHT22;2949;50.778;7.094;2024-03-23T12:18:07;10.30;99.90
5846;DHT22;2949;50.778;7.094;2024-03-23T12:20:33;10.60;99.90
5846;DHT22;2949;50.778;7.094;2024-03-23T12:23:09;11.00;99.90
5846;DHT22;2949;50.778;7.094;2024-03-23T12:25:36;11.10;99.90
5846;DHT22;2949;50.778;7.094;2024-03-23T12:28:02;11.20;99.90
5846;DHT22;2949;50.778;7.094;2024-03-23T12:30:27;11.20;99.90
5846;DHT22;2949;50.778;7.094;2024-03-23T12:32:53;10.80;99.90
5846;DHT22;2949;50.778;7.094;2024-03-23T12:35:19;10.70;99.90
5846;DHT22;2949;50.778;7.094;2024-03-23T12:37:44;11.00;99.90
5846;DHT22;2949;50.778;7.094;2024-03-23T12:40:10;11.40;99.90
5846;DHT22;2949;50.778;7.094;2024-03-23T12:42:36;11.70;99.90
5846;DHT22;2949;50.778;7.094;2024-03-23T12:45:02;12.00;99.90
5846;DHT22;2949;50.778;7.094;2024-03-23T12:47:30;11.90;99.90
5846;DHT22;2949;50.778;7.094;2024-03-23T12:49:55;11.20;99.90
5846;DHT22;2949;50.778;7.094;2024-03-23T12:52:21;10.20;99.90
5846;DHT22;2949;50.778;7.094;2024-03-23T12:54:48;9.40;99.90
5846;DHT22;2949;50.778;7.094;2024-03-23T12:57:14;9.10;99.90
5846;DHT22;2949;50.778;7.094;2024-03-23T12:59:40;8.90;99.90
5846;DHT22;2949;50.778;7.094;2024-03-23T13:02:06;8.80;99.90
5846;DHT22;2949;50.778;7.094;2024-03-23T13:04:32;8.90;99.90
5846;DHT22;2949;50.778;7.094;2024-03-23T13:06:58;8.80;99.90
5846;DHT22;2949;50.778;7.094;2024-03-23T13:09:23;8.70;99.90
5846;DHT22;2949;50.778;7.094;2024-03-23T13:11:49;8.50;99.90
5846;DHT22;2949;50.778;7.094;2024-03-23T13:14:14;8.40;99.90
5846;DHT22;2949;50.778;7.094;2024-03-23T13:16:42;8.50;99.90
5846;DHT22;2949;50.778;7.094;2024-03-23T13:19:07;8.60;99.90
5846;DHT22;2949;50.778;7.094;2024-03-23T13:21:33;8.70;99.90
5846;DHT22;2949;50.778;7.094;2024-03-23T13:23:58;9.00;99.90
5846;DHT22;2949;50.778;7.094;2024-03-23T13:26:24;9.30;99.90
5846;DHT22;2949;50.778;7.094;2024-03-23T13:28:49;9.70;99.90
5846;DHT22;2949;50.778;7.094;2024-03-23T13:31:15;10.00;99.90
5846;DHT22;2949;50.778;7.094;2024-03-23T13:33:40;10.30;99.90
5846;DHT22;2949;50.778;7.094;2024-03-23T13:36:07;10.60;99.90
5846;DHT22;2949;50.778;7.094;2024-03-23T13:38:33;10.80;99.90
5846;DHT22;2949;50.778;7.094;2024-03-23T13:40:59;10.90;99.90
5846;DHT22;2949;50.778;7.094;2024-03-23T13:43:26;10.90;99.90
5846;DHT22;2949;50.778;7.094;2024-03-23T13:45:55;10.90;99.90
5846;DHT22;2949;50.778;7.094;2024-03-23T13:48:26;10.90;99.90
5846;DHT22;2949;50.778;7.094;2024-03-23T13:51:01;11.00;99.90
5846;DHT22;2949;50.778;7.094;2024-03-23T13:53:28;11.00;99.90
5846;DHT22;2949;50.778;7.094;2024-03-23T13:55:53;11.00;99.90
5846;DHT22;2949;50.778;7.094;2024-03-23T13:58:19;11.40;99.90
5846;DHT22;2949;50.778;7.094;2024-03-23T14:00:45;11.80;99.90
5846;DHT22;2949;50.778;7.094;2024-03-23T14:03:14;12.00;99.90
5846;DHT22;2949;50.778;7.094;2024-03-23T14:05:40;12.00;99.90
5846;DHT22;2949;50.778;7.094;2024-03-23T14:08:07;11.70;99.90
5846;DHT22;2949;50.778;7.094;2024-03-23T14:10:32;11.40;99.90
5846;DHT22;2949;50.778;7.094;2024-03-23T14:12:58;11.10;99.90
5846;DHT22;2949;50.778;7.094;2024-03-23T14:15:26;11.00;99.90
5846;DHT22;2949;50.778;7.094;2024-03-23T14:17:51;10.70;99.90
5846;DHT22;2949;50.778;7.094;2024-03-23T14:20:17;10.50;99.90
5846;DHT22;2949;50.778;7.094;2024-03-23T14:22:42;10.20;99.90
5846;DHT22;2949;50.778;7.094;2024-03-23T14:25:09;10.00;99.90
5846;DHT22;2949;50.778;7.094;2024-03-23T14:27:34;9.80;99.90
5846;DHT22;2949;50.778;7.094;2024-03-23T14:30:04;9.50;99.90
5846;DHT22;2949;50.778;7.094;2024-03-23T14:32:32;9.40;99.90
5846;DHT22;2949;50.778;7.094;2024-03-23T14:35:03;9.30;99.90
5846;DHT22;2949;50.778;7.094;2024-03-23T14:37:29;9.10;99.90
5846;DHT22;2949;50.778;7.094;2024-03-23T14:39:58;8.70;99.90
5846;DHT22;2949;50.778;7.094;2024-03-23T14:42:24;8.30;99.90
5846;DHT22;2949;50.778;7.094;2024-03-23T14:44:50;7.90;99.90
5846;DHT22;2949;50.778;7.094;2024-03-23T14:47:17;7.70;99.90
5846;DHT22;2949;50.778;7.094;2024-03-23T14:49:46;7.60;99.90
5846;DHT22;2949;50.778;7.094;2024-03-23T14:52:13;7.50;99.90
5846;DHT22;2949;50.778;7.094;2024-03-23T14:54:39;7.50;99.90
5846;DHT22;2949;50.778;7.094;2024-03-23T14:57:04;7.50;99.90
5846;DHT22;2949;50.778;7.094;2024-03-23T14:59:30;7.60;99.90
5846;DHT22;2949;50.778;7.094;2024-03-23T15:01:55;7.70;99.90
5846;DHT22;2949;50.778;7.094;2024-03-23T15:04:21;8.00;99.90
5846;DHT22;2949;50.778;7.094;2024-03-23T15:06:47;8.20;99.90
5846;DHT22;2949;50.778;7.094;2024-03-23T15:09:15;8.60;99.90
5846;DHT22;2949;50.778;7.094;2024-03-23T15:11:40;8.70;99.90
5846;DHT22;2949;50.778;7.094;2024-03-23T15:14:06;8.80;99.90
5846;DHT22;2949;50.778;7.094;2024-03-23T15:16:32;8.70;99.90
5846;DHT22;2949;50.778;7.094;2024-03-23T15:18:58;8.70;99.90
5846;DHT22;2949;50.778;7.094;2024-03-23T15:21:23;8.60;99.90
5846;DHT22;2949;50.778;7.094;2024-03-23T15:23:49;8.50;99.90
5846;DHT22;2949;50.778;7.094;2024-03-23T15:26:14;8.40;99.90
5846;DHT22;2949;50.778;7.094;2024-03-23T15:28:41;8.30;99.90
5846;DHT22;2949;50.778;7.094;2024-03-23T15:31:18;7.70;99.90
5846;DHT22;2949;50.778;7.094;2024-03-23T15:33:44;7.30;99.90
5846;DHT22;2949;50.778;7.094;2024-03-23T15:36:09;7.20;99.90
5846;DHT22;2949;50.778;7.094;2024-03-23T15:38:35;7.40;99.90
5846;DHT22;2949;50.778;7.094;2024-03-23T15:41:00;7.70;99.90
5846;DHT22;2949;50.778;7.094;2024-03-23T15:43:26;8.00;99.90
5846;DHT22;2949;50.778;7.094;2024-03-23T15:46:03;8.00;99.90
5846;DHT22;2949;50.778;7.094;2024-03-23T15:48:30;8.20;99.90
5846;DHT22;2949;50.778;7.094;2024-03-23T15:51:01;8.20;99.90
5846;DHT22;2949;50.778;7.094;2024-03-23T15:53:27;8.10;99.90
5846;DHT22;2949;50.778;7.094;2024-03-23T15:56:01;8.00;99.90
5846;DHT22;2949;50.778;7.094;2024-03-23T15:58:29;7.90;99.90
5846;DHT22;2949;50.778;7.094;2024-03-23T16:00:59;7.70;99.90
5846;DHT22;2949;50.778;7.094;2024-03-23T16:03:25;7.60;99.90
5846;DHT22;2949;50.778;7.094;2024-03-23T16:06:01;7.40;99.90
5846;DHT22;2949;50.778;7.094;2024-03-23T16:08:27;7.30;99.90
5846;DHT22;2949;50.778;7.094;2024-03-23T16:10:53;7.30;99.90
5846;DHT22;2949;50.778;7.094;2024-03-23T16:13:19;7.40;99.90
5846;DHT22;2949;50.778;7.094;2024-03-23T16:15:46;7.50;99.90
5846;DHT22;2949;50.778;7.094;2024-03-23T16:18:11;7.50;99.90
5846;DHT22;2949;50.778;7.094;2024-03-23T16:20:37;7.40;99.90
5846;DHT22;2949;50.778;7.094;2024-03-23T16:23:03;7.20;99.90
5846;DHT22;2949;50.778;7.094;2024-03-23T16:25:29;7.20;99.90
5846;DHT22;2949;50.778;7.094;2024-03-23T16:27:55;7.00;99.90
5846;DHT22;2949;50.778;7.094;2024-03-23T16:30:21;6.90;99.90
5846;DHT22;2949;50.778;7.094;2024-03-23T16:32:49;6.70;99.90
5846;DHT22;2949;50.778;7.094;2024-03-23T16:35:15;6.60;99.90
5846;DHT22;2949;50.778;7.094;2024-03-23T16:37:41;6.30;99.90
5846;DHT22;2949;50.778;7.094;2024-03-23T16:40:07;6.10;99.90
5846;DHT22;2949;50.778;7.094;2024-03-23T16:42:35;5.80;99.90
5846;DHT22;2949;50.778;7.094;2024-03-23T16:45:01;5.40;99.90
5846;DHT22;2949;50.778;7.094;2024-03-23T16:47:27;5.40;99.90
5846;DHT22;2949;50.778;7.094;2024-03-23T16:49:53;5.30;99.90
5846;DHT22;2949;50.778;7.094;2024-03-23T16:52:18;5.30;99.90
5846;DHT22;2949;50.778;7.094;2024-03-23T16:54:44;5.30;99.90
5846;DHT22;2949;50.778;7.094;2024-03-23T16:57:09;5.30;99.90
5846;DHT22;2949;50.778;7.094;2024-03-23T16:59:35;5.30;99.90
5846;DHT22;2949;50.778;7.094;2024-03-23T17:02:00;5.40;99.90
5846;DHT22;2949;50.778;7.094;2024-03-23T17:04:26;5.40;99.90
5846;DHT22;2949;50.778;7.094;2024-03-23T17:06:51;5.60;99.90
5846;DHT22;2949;50.778;7.094;2024-03-23T17:09:17;5.70;99.90